Tiempo atmosférico en la estación meteorológica de La Pobla de Massaluca, Tarragona (365 m.)



Fecha
DESCASC
Temp. máxima en grados centígrados (hora)
DESCASC
Temp. mínima en grados centígrados (hora)
DESCASC
Temp. media en grados centígrados
DESCASC
Racha de viento máxima en m/sg (hora)
DESCASC
Velocidad máxima media en intervalos de 10 minutos(hora)
DESCASC
Precipitaciones diarias en mm
DESCASC
Precipitaciones de 00:00 a 06:00 en mm
DESCASC
Precipitaciones de 06:00 a 12:00 en mm
DESCASC
Precipitaciones de 12:00 a 18:00 en mm
DESCASC
Precipitaciones de 18:00 a 24:00 en mm
DESCASC
13-10-2019 25.9 (14:30) 18.6 (06:00) 22.3 11.39 (16:40) 5.83 (11:30) 0 0 0 0 0
12-10-2019 24.7 (13:00) 18.5 (06:40) 21.6 12.78 (14:00) 6.94 (14:10) 0 0 0 0 0
10-10-2019 23.2 (16:40) 14.6 (00:00) 18.9 8.61 (00:10) 4.72 (00:10) 0 0 0 0 0
09-10-2019 25.5 (17:10) 15.6 (00:00) 20.6 9.72 (23:50) 5.56 (19:00) 0 0 0 0 0
08-10-2019 28.5 (16:10) 16.2 (00:00) 22.4 7.78 (17:40) 4.44 (01:10) 0 0 0 0 0
07-10-2019 24.7 (17:50) 13.5 (00:00) 19.1 15.28 (01:20) 9.44 (01:20) 0 0 0 0 0
06-10-2019 24.3 (17:20) 13.8 (00:00) 19 13.33 (23:59) 8.61 (13:50) 0 0 0 0 0
05-10-2019 26.7 (18:00) 15.2 (08:10) 21 9.72 (12:30) 6.39 (02:00) 0 0 0 0 0
04-10-2019 27.9 (17:00) 15.1 (00:00) 21.5 9.72 (01:40) 6.67 (01:50) 0 0 0 0 0
03-10-2019 24.7 (18:00) 13.2 (00:00) 19 11.67 (13:20) 7.5 (10:40) 0 0 0 0 0
02-10-2019 23.8 (16:40) 15.4 (00:00) 19.6 16.67 (15:40) 11.39 (14:00) 0 0 0 0 0
01-10-2019 30.2 (17:50) 16.9 (00:00) 23.6 10.83 (18:10) 7.5 (18:20) 0 0 0 0 0
30-09-2019 29.6 (15:10) 17 (00:00) 23.3 8.89 (17:50) 4.72 (05:40) 0 0 0 0 0
29-09-2019 31.4 (18:10) 16.6 (00:00) 24 6.67 (16:30) 3.89 (21:40) 0 0 0 0 0
28-09-2019 26.7 (15:00) 15.3 (00:00) 21 8.89 (18:40) 4.44 (16:10) 0 0 0 0 0
27-09-2019 30.4 (17:40) 17.5 (00:00) 23.9 7.5 (14:10) 3.61 (20:30) 0 0 0 0 0
26-09-2019 29.4 (16:30) 16.4 (00:00) 22.9 7.78 (19:20) 4.17 (17:20) 0 0 0 0 0
25-09-2019 24.6 (16:40) 17.3 (00:00) 20.9 11.67 (14:00) 8.06 (08:30) 0 0 0 0 0
24-09-2019 30.7 (17:30) 16.8 (00:00) 23.8 10.28 (14:30) 6.39 (15:40) 0 0 0 0 0
23-09-2019 25.6 (16:20) 14.8 (00:00) 20.2 9.72 (15:00) 5.83 (14:40) 0 0 0 0 0
22-09-2019 28.4 (16:20) 18.8 (00:00) 23.6 14.17 (18:20) 9.72 (17:40) 0 0 0 0 0
21-09-2019 26.6 (14:20) 17.2 (00:00) 21.9 9.44 (19:30) 4.44 (19:20) 3.4 0 3.4 0 0
20-09-2019 26 (14:10) 18.4 (00:00) 22.2 10.83 (11:40) 6.11 (15:30) 0 0 0 0 0
19-09-2019 30.2 (16:00) 18.4 (00:00) 24.3 11.11 (18:00) 6.67 (17:10) 0 0 0 0 0
18-09-2019 30.7 (16:00) 19.3 (00:00) 25 8.06 (10:40) 5.28 (10:40) 0 0 0 0 0
17-09-2019 31.7 (17:10) 18.4 (00:00) 25.1 7.22 (18:10) 3.89 (22:00) 0 0 0 0 0
16-09-2019 29.2 (16:00) 18.7 (00:00) 24 9.44 (14:40) 4.72 (13:30) 0 0 0 0 0

Gráficas

Temp. máximas Temp. mínimas Temp. medias Precipitaciones Rachas de viento máximas Velocidades máximas media en intervalos de 10 minutos

Datos horarios

Fecha y hora oficial Temperatura (ºC) Velocidad del viento (km/h) Dirección del viento Racha (km/h) Dirección de racha Precipitación (mm) Presión (hPa) Tendencia (hPa) Humedad (%)
2019-10-15 23:00:00 13.9 13 Sur 17 Sur 0 -- -- 46
2019-10-15 22:00:00 14.3 7 Sudoeste 12 Sudoeste 0 -- -- 46
2019-10-15 21:00:00 14.7 9 Oeste 17 Oeste 0 -- -- 45
2019-10-15 20:00:00 15.4 13 Oeste 28 Oeste 0 -- -- 43
2019-10-15 19:00:00 17.2 16 Oeste 31 Oeste 0 -- -- 37
2019-10-15 18:00:00 18.4 21 Oeste 42 Oeste 0 -- -- 36
2019-10-15 17:00:00 18.2 29 Oeste 48 Oeste 0 -- -- 35
2019-10-15 16:00:00 18.4 27 Oeste 53 Oeste 0 -- -- 36
2019-10-15 15:00:00 17.8 29 Oeste 55 Oeste 0 -- -- 38
2019-10-15 14:00:00 17 27 Oeste 45 Oeste 0 -- -- 40
2019-10-15 13:00:00 16 31 Oeste 44 Oeste 0 -- -- 44
2019-10-15 12:00:00 14.3 31 Oeste 50 Oeste 0 -- -- 51
2019-10-15 11:00:00 12.8 24 Oeste 38 Oeste 0 -- -- 58
2019-10-15 10:00:00 11.5 18 Oeste 35 Oeste 0 -- -- 62
2019-10-15 09:00:00 10.2 15 Oeste 30 Oeste 0 -- -- 66
2019-10-15 08:00:00 10.2 19 Oeste 35 Oeste 0 -- -- 66
2019-10-15 07:00:00 10.6 24 Oeste 43 Oeste 0 -- -- 65
2019-10-15 06:00:00 11 19 Oeste 36 Oeste 0 -- -- 65
2019-10-15 05:00:00 11.7 21 Oeste 32 Oeste 0 -- -- 65
2019-10-15 04:00:00 12.4 15 Oeste 42 Sudoeste 0 -- -- 67
2019-10-15 03:00:00 13.2 21 Oeste 32 Oeste 0 -- -- 67
2019-10-15 02:00:00 13.4 12 Oeste 23 Oeste 0 -- -- 69
2019-10-15 01:00:00 13.7 12 Oeste 34 Oeste 0 -- -- 66
2019-10-15 00:00:00 14.1 21 Oeste 59 Oeste 0 -- -- 68
2019-10-14 23:00:00 18.3 8 Sudoeste 12 Oeste 0 -- -- 87
2019-10-14 22:00:00 18.3 5 Este 22 Sudeste 0 -- -- 86
2019-10-14 21:00:00 19.2 11 Sudeste 24 Sudeste 0 -- -- 82
2019-10-14 20:00:00 19.5 12 Sudoeste 41 Sudeste 0 -- -- 80
2019-10-14 19:00:00 19.9 20 Sudeste 44 Sudeste 0 -- -- 81
2019-10-14 18:00:00 20.9 16 Este 32 Este 0 -- -- 79
2019-10-14 17:00:00 20.2 18 Este 38 Este 0 -- -- 87
2019-10-14 16:00:00 20.3 11 Este 25 Este 0.2 -- -- 88
2019-10-14 15:00:00 21.3 9 Este 22 Este 0 -- -- 82
2019-10-14 14:00:00 21.7 2 Nordeste 20 Este 0.2 -- -- 82
2019-10-14 13:00:00 21.9 9 Este 27 Este 0 -- -- 75
2019-10-14 12:00:00 21.4 13 Este 33 Este 0 -- -- 77
2019-10-14 11:00:00 21.1 20 Este 40 Este 0 -- -- 78
2019-10-14 10:00:00 20.7 9 Este 33 Este 0 -- -- 80
2019-10-14 09:00:00 19.6 13 Este 36 Este 0 -- -- 86
2019-10-14 08:00:00 19 18 Este 43 Este 0 -- -- 88
2019-10-14 07:00:00 18.8 16 Este 40 Este 0 -- -- 86
2019-10-14 06:00:00 18.6 15 Este 33 Este 0 -- -- 88
2019-10-14 05:00:00 18.5 15 Este 37 Este 0 -- -- 89
2019-10-14 04:00:00 18.5 18 Este 31 Este 0 -- -- 90
2019-10-14 03:00:00 18.5 14 Este 33 Este 0 -- -- 88
2019-10-14 02:00:00 18.6 12 Este 30 Este 0 -- -- 89
2019-10-14 01:00:00 18.8 14 Este 29 Sudeste 0 -- -- 88
2019-10-14 00:00:00 19.1 16 Este 39 Este 0 -- -- 85
2019-10-13 23:00:00 19.3 13 Este 32 Este 0 -- -- 84
2019-10-13 22:00:00 19.4 14 Este 36 Este 0 -- -- 84
2019-10-13 21:00:00 19.6 16 Este 35 Sudeste 0 -- -- 84
2019-10-13 20:00:00 20.2 17 Este 38 Sudeste 0 -- -- 80
2019-10-13 19:00:00 21.7 15 Este 40 Este 0 -- -- 72
2019-10-13 18:00:00 22.7 18 Este 39 Este 0 -- -- 70
2019-10-13 17:00:00 24 18 Este 41 Este 0 -- -- 67
2019-10-13 16:00:00 25.1 16 Este 35 Este 0 -- -- 63
2019-10-13 15:00:00 25.3 19 Este 35 Sudeste 0 -- -- 63
2019-10-13 14:00:00 25.3 16 Este 40 Este 0 -- -- 59
2019-10-13 13:00:00 24.5 17 Este 37 Sudeste 0 -- -- 63
2019-10-13 12:00:00 23.6 15 Sudeste 41 Sudeste 0 -- -- 67
2019-10-13 11:00:00 22.2 14 Este 29 Este 0 -- -- 75
2019-10-13 10:00:00 21.1 13 Este 27 Este 0 -- -- 82
2019-10-13 09:00:00 19.2 10 Este 24 Este 0 -- -- 91
2019-10-13 08:00:00 18.9 9 Este 27 Sudeste 0 -- -- 92
2019-10-13 07:00:00 19 10 Este 26 Sudeste 0 -- -- 91
2019-10-13 06:00:00 18.6 8 Este 17 Este 0 -- -- 91
2019-10-13 05:00:00 19 5 Este 20 Sudeste 0 -- -- 88
2019-10-13 04:00:00 19 9 Este 21 Este 0 -- -- 90
2019-10-13 03:00:00 19 8 Este 26 Este 0 -- -- 90
2019-10-13 02:00:00 19 12 Este 27 Este 0 -- -- 89
2019-10-13 01:00:00 19.1 18 Este 33 Este 0 -- -- 88
2019-10-13 00:00:00 19.1 18 Este 29 Este 0 -- -- 87
2019-10-12 23:00:00 19.2 17 Este 36 Este 0 -- -- 86
2019-10-12 22:00:00 19.2 22 Este 39 Este 0 -- -- 80
2019-10-12 21:00:00 19.4 18 Este 35 Este 0 -- -- 80
2019-10-12 20:00:00 20 14 Este 31 Este 0 -- -- 80
2019-10-12 19:00:00 20.9 16 Este 40 Sudeste 0 -- -- 77
2019-10-12 18:00:00 22.5 17 Este 40 Sudeste 0 -- -- 69
2019-10-12 17:00:00 23.2 16 Este 39 Sudeste 0 -- -- 65
2019-10-12 16:00:00 23.7 13 Este 36 Sudeste 0 -- -- 65
2019-10-12 15:00:00 23.4 18 Este 45 Sudeste 0 -- -- 67
2019-10-12 14:00:00 24.4 21 Sudeste 46 Sudeste 0 -- -- 62
2019-10-12 13:00:00 24.7 18 Este 45 Sudeste 0 -- -- 59
2019-10-12 12:00:00 23.4 22 Sudeste 41 Sudeste 0 -- -- 62
2019-10-12 11:00:00 21.9 15 Este 35 Sudeste 0 -- -- 72
2019-10-12 10:00:00 20.1 12 Este 27 Este 0 -- -- 83
2019-10-12 09:00:00 18.9 10 Este 23 Este 0 -- -- 86
2019-10-12 08:00:00 18.7 12 Este 29 Sudeste 0 -- -- 89
2019-10-12 07:00:00 18.5 12 Este 25 Sudeste 0 -- -- 89
2019-10-12 06:00:00 18.6 13 Este 29 Este 0 -- -- 89
2019-10-12 05:00:00 18.7 12 Este 26 Sudeste 0 -- -- 85
2019-10-12 04:00:00 19 11 Este 24 Este 0 -- -- 83
2019-10-12 03:00:00 19.3 13 Este 27 Este 0 -- -- 81
2019-10-12 02:00:00 19.1 13 Este 26 Este 0 -- -- 84
2019-10-12 01:00:00 19.2 12 Este 32 Sudeste 0 -- -- 82
2019-10-12 00:00:00 19.3 18 Este 35 Este 0 -- -- 85
2019-10-11 23:00:00 19.3 18 Este 36 Este 0 -- -- 86
2019-10-11 22:00:00 19.7 14 Este 38 Sudeste 0 -- -- 84
2019-10-11 21:00:00 20.1 18 Este 37 Este 0 -- -- 84
2019-10-11 20:00:00 20.7 15 Este 40 Sudeste 0 -- -- 81
2019-10-11 19:00:00 21.8 15 Este 39 Este 0 -- -- 76
2019-10-11 18:00:00 23.7 15 Este 37 Nordeste 0 -- -- 67
2019-10-11 17:00:00 25.1 15 Este 37 Este 0 -- -- 61
2019-10-11 16:00:00 25.7 15 Este 28 Este 0 -- -- 57
2019-10-11 15:00:00 25.9 13 Este 27 Este 0 -- -- 55
2019-10-11 14:00:00 25.3 9 Este 26 Nordeste 0 -- -- 58
2019-10-11 13:00:00 23.6 8 Este 24 Este 0 -- -- 64
2019-10-11 12:00:00 21.3 11 Este 21 Sudeste 0 -- -- 74
2019-10-11 11:00:00 15.8 3 Oeste 6 Oeste 0 -- -- 96
2019-10-11 10:00:00 13.9 3 Noroeste 7 Oeste 0 -- -- 97
2019-10-11 09:00:00 14.3 2 Noroeste 3 Noroeste 0 -- -- 96
2019-10-11 08:00:00 14.9 0 Calma 3 Nordeste 0 -- -- 97
2019-10-11 07:00:00 15.1 3 Nordeste 7 Nordeste 0 -- -- 97
2019-10-11 06:00:00 15.3 5 Nordeste 11 Nordeste 0 -- -- 97
2019-10-11 05:00:00 15.5 9 Nordeste 15 Este 0 -- -- 97
2019-10-11 04:00:00 15.6 12 Este 15 Nordeste 0 -- -- 96
2019-10-11 03:00:00 15.6 12 Este 18 Este 0 -- -- 94
2019-10-11 02:00:00 16.1 9 Este 22 Este 0 -- -- 92
2019-10-11 01:00:00 16.3 10 Este 19 Este 0 -- -- 91
2019-10-11 00:00:00 16.6 6 Este 21 Sudeste 0 -- -- 90
2019-10-10 23:00:00 16.5 9 Este 20 Este 0 -- -- 89
2019-10-10 22:00:00 16.7 10 Este 22 Sudeste 0 -- -- 87
2019-10-10 21:00:00 17.1 10 Este 23 Este 0 -- -- 83
2019-10-10 20:00:00 17.7 8 Este 24 Este 0 -- -- 74
2019-10-10 19:00:00 19.6 12 Este 27 Este 0 -- -- 62
2019-10-10 18:00:00 21.7 9 Este 20 Este 0 -- -- 44
2019-10-10 17:00:00 22.9 9 Sudeste 17 Sudeste 0 -- -- 42
2019-10-10 16:00:00 21.8 6 Norte 12 Sudoeste 0 -- -- 42
2019-10-10 15:00:00 21.4 9 Sudoeste 18 Oeste 0 -- -- 42
2019-10-10 14:00:00 20.1 9 Noroeste 19 Oeste 0 -- -- 46
2019-10-10 13:00:00 18.6 9 Oeste 24 Oeste 0 -- -- 49
2019-10-10 12:00:00 17.4 13 Sudoeste 22 Oeste 0 -- -- 53
2019-10-10 11:00:00 16.2 15 Oeste 22 Oeste 0 -- -- 58
2019-10-10 10:00:00 15.3 10 Oeste 19 Oeste 0 -- -- 60
2019-10-10 09:00:00 14.7 13 Oeste 20 Oeste 0 -- -- 63
2019-10-10 08:00:00 14.6 9 Oeste 14 Sudoeste 0 -- -- 62
2019-10-10 07:00:00 14.8 5 Oeste 19 Oeste 0 -- -- 62
2019-10-10 06:00:00 14.8 10 Oeste 18 Sudoeste 0 -- -- 61
2019-10-10 05:00:00 14.7 15 Sudoeste 21 Oeste 0 -- -- 61
2019-10-10 04:00:00 15.5 13 Oeste 27 Oeste 0 -- -- 57
2019-10-10 03:00:00 15.9 14 Oeste 24 Oeste 0 -- -- 56
2019-10-10 02:00:00 15.8 11 Oeste 22 Oeste 0 -- -- 56
2019-10-10 01:00:00 16.5 13 Oeste 31 Sudoeste 0 -- -- 54
2019-10-10 00:00:00 17.5 18 Oeste 35 Sudoeste 0 -- -- 53
2019-10-09 23:00:00 18.2 12 Oeste 22 Sudoeste 0 -- -- 53
2019-10-09 22:00:00 18.9 14 Oeste 23 Oeste 0 -- -- 53
2019-10-09 21:00:00 20 13 Oeste 25 Oeste 0 -- -- 51
2019-10-09 20:00:00 21.3 15 Oeste 27 Oeste 0 -- -- 51
2019-10-09 19:00:00 23.4 20 Oeste 33 Oeste 0 -- -- 48
2019-10-09 18:00:00 24.9 14 Oeste 30 Oeste 0 -- -- 47
2019-10-09 17:00:00 25.1 15 Oeste 29 Oeste 0 -- -- 49
2019-10-09 16:00:00 24.7 15 Oeste 33 Oeste 0 -- -- 50
2019-10-09 15:00:00 24.1 18 Oeste 30 Oeste 0 -- -- 50
2019-10-09 14:00:00 23.2 17 Oeste 31 Oeste 0 -- -- 54
2019-10-09 13:00:00 22.1 13 Sudoeste 29 Oeste 0 -- -- 58
2019-10-09 12:00:00 20.3 15 Oeste 26 Oeste 0 -- -- 66
2019-10-09 11:00:00 17.3 13 Sudoeste 23 Sudoeste 0 -- -- 78
2019-10-09 10:00:00 16.7 14 Sudoeste 20 Sudoeste 0 -- -- 85
2019-10-09 09:00:00 16.2 11 Sudoeste 16 Oeste 0 -- -- 92
2019-10-09 08:00:00 15.6 9 Sudoeste 17 Sudoeste 0 -- -- 92
2019-10-09 07:00:00 17 5 Sur 9 Sudoeste 0 -- -- 94
2019-10-09 06:00:00 17.5 3 Sudoeste 8 Sudeste 0 -- -- 93
2019-10-09 05:00:00 18 5 Este 19 Este 0 -- -- 92
2019-10-09 04:00:00 17.9 7 Este 18 Este 0 -- -- 93
2019-10-09 03:00:00 17.7 10 Este 19 Este 0 -- -- 93
2019-10-09 02:00:00 17.7 15 Este 20 Este 0 -- -- 92
2019-10-09 01:00:00 18.2 13 Este 19 Nordeste 0 -- -- 87
2019-10-09 00:00:00 18.8 13 Este 18 Este 0 -- -- 82
2019-10-08 23:00:00 19.5 12 Este 19 Este 0 -- -- 76
2019-10-08 22:00:00 19.9 9 Este 25 Sudeste 0 -- -- 76
2019-10-08 21:00:00 20.6 12 Este 25 Este 0 -- -- 74
2019-10-08 20:00:00 21.7 12 Este 26 Sudeste 0 -- -- 68
2019-10-08 19:00:00 23.8 12 Este 26 Sudeste 0 -- -- 57
2019-10-08 18:00:00 25.7 13 Este 28 Este 0 -- -- 52
2019-10-08 17:00:00 27.3 12 Sudeste 21 Sudeste 0 -- -- 45
2019-10-08 16:00:00 28.3 7 Sudoeste 18 Sudeste 0 -- -- 30
2019-10-08 15:00:00 27.6 10 Este 18 Este 0 -- -- 29
2019-10-08 14:00:00 27 7 Sudoeste 15 Sur 0 -- -- 25
2019-10-08 13:00:00 26 5 Sudeste 16 Sur 0 -- -- 23
2019-10-08 12:00:00 23.8 7 Sudoeste 15 Sur 0 -- -- 28
2019-10-08 11:00:00 22.1 3 Sudeste 6 Sur 0 -- -- 27
2019-10-08 10:00:00 19.5 0 Calma 14 Sudoeste 0 -- -- 28
2019-10-08 09:00:00 16.8 10 Sur 16 Sur 0 -- -- 39
2019-10-08 08:00:00 16.3 11 Sur 14 Sur 0 -- -- 30
2019-10-08 07:00:00 16.8 10 Sur 17 Sur 0 -- -- 30
2019-10-08 06:00:00 17.5 10 Sur 20 Sudoeste 0 -- -- 28
2019-10-08 05:00:00 18.2 9 Sudoeste 18 Sudoeste 0 -- -- 27
2019-10-08 04:00:00 18.1 11 Sudoeste 17 Sudoeste 0 -- -- 29
2019-10-08 03:00:00 18.3 10 Sur 19 Sudoeste 0 -- -- 31
2019-10-08 02:00:00 19 12 Sudoeste 24 Sudoeste 0 -- -- 30
2019-10-08 01:00:00 19.5 15 Sudoeste 25 Sudoeste 0 -- -- 30
2019-10-08 00:00:00 19.9 17 Sudoeste 26 Oeste 0 -- -- 39
2019-10-07 23:00:00 20.4 16 Sudoeste 26 Sudoeste 0 -- -- 42
2019-10-07 22:00:00 20.6 14 Sudoeste 23 Sudoeste 0 -- -- 45
2019-10-07 21:00:00 21.5 14 Sudoeste 24 Sudoeste 0 -- -- 44
2019-10-07 20:00:00 22.3 15 Sudoeste 23 Oeste 0 -- -- 42
2019-10-07 19:00:00 24.1 14 Oeste 31 Sudoeste 0 -- -- 38
2019-10-07 18:00:00 24.6 18 Oeste 32 Sudoeste 0 -- -- 36
2019-10-07 17:00:00 24.4 21 Oeste 39 Oeste 0 -- -- 36
2019-10-07 16:00:00 23.4 21 Oeste 38 Oeste 0 -- -- 38
2019-10-07 15:00:00 22.5 26 Oeste 45 Oeste 0 -- -- 40
2019-10-07 14:00:00 21.3 24 Oeste 41 Oeste 0 -- -- 44
2019-10-07 13:00:00 19.7 25 Oeste 40 Oeste 0 -- -- 46
2019-10-07 12:00:00 18.5 26 Oeste 46 Oeste 0 -- -- 49
2019-10-07 11:00:00 16.8 28 Oeste 44 Noroeste 0 -- -- 55
2019-10-07 10:00:00 15.4 26 Oeste 49 Oeste 0 -- -- 61
2019-10-07 09:00:00 14.1 27 Oeste 42 Oeste 0 -- -- 64
2019-10-07 08:00:00 13.6 24 Oeste 36 Oeste 0 -- -- 66
2019-10-07 07:00:00 13.8 23 Oeste 37 Oeste 0 -- -- 66
2019-10-07 06:00:00 14.3 27 Oeste 47 Oeste 0 -- -- 64
2019-10-07 05:00:00 15 31 Oeste 51 Oeste 0 -- -- 60
2019-10-07 04:00:00 15.2 22 Oeste 43 Oeste 0 -- -- 61
2019-10-07 03:00:00 15.6 31 Oeste 47 Oeste 0 -- -- 65
2019-10-07 02:00:00 16.1 31 Oeste 55 Oeste 0 -- -- 63
2019-10-07 01:00:00 16.3 30 Oeste 48 Oeste 0 -- -- 64
2019-10-07 00:00:00 17.3 30 Oeste 48 Oeste 0 -- -- 62
2019-10-06 23:00:00 18.3 23 Oeste 40 Oeste 0 -- -- 59
2019-10-06 22:00:00 19.4 20 Sudoeste 36 Sudoeste 0 -- -- 54
2019-10-06 21:00:00 20.3 13 Oeste 36 Oeste 0 -- -- 54
2019-10-06 20:00:00 21.1 17 Oeste 36 Oeste 0 -- -- 53
2019-10-06 19:00:00 22.6 26 Oeste 42 Oeste 0 -- -- 49
2019-10-06 18:00:00 23.7 24 Oeste 39 Oeste 0 -- -- 46
2019-10-06 17:00:00 23.9 23 Oeste 39 Oeste 0 -- -- 44
2019-10-06 16:00:00 22.8 25 Oeste 38 Oeste 0 -- -- 46
2019-10-06 15:00:00 22.3 23 Oeste 40 Oeste 0 -- -- 45
2019-10-06 14:00:00 22.3 26 Oeste 44 Oeste 0 -- -- 44
2019-10-06 13:00:00 20.6 23 Oeste 48 Oeste 0 -- -- 48
2019-10-06 12:00:00 19.3 22 Oeste 39 Oeste 0 -- -- 53
2019-10-06 11:00:00 17.7 22 Oeste 37 Oeste 0 -- -- 62
2019-10-06 10:00:00 16.4 21 Oeste 31 Sudoeste 0 -- -- 72
2019-10-06 09:00:00 14.2 13 Sudoeste 18 Sudoeste 0 -- -- 81
2019-10-06 08:00:00 13.9 13 Sudoeste 20 Sudoeste 0 -- -- 79
2019-10-06 07:00:00 14.6 12 Sudoeste 21 Sudoeste 0 -- -- 73
2019-10-06 06:00:00 15.3 13 Oeste 22 Sudoeste 0 -- -- 69
2019-10-06 05:00:00 15.3 16 Oeste 23 Sudoeste 0 -- -- 70
2019-10-06 04:00:00 16.6 16 Sudoeste 32 Sudoeste 0 -- -- 66
2019-10-06 03:00:00 17.2 9 Sudoeste 18 Sudeste 0 -- -- 72
2019-10-06 02:00:00 17.3 13 Sur 17 Sudeste 0 -- -- 80
2019-10-06 01:00:00 18.1 9 Sudeste 18 Sudeste 0 -- -- 76
2019-10-06 00:00:00 18.3 9 Sudeste 19 Este 0 -- -- 75
2019-10-05 23:00:00 18.8 12 Sudeste 19 Sudeste 0 -- -- 73
2019-10-05 22:00:00 19.2 9 Sudeste 18 Sudeste 0 -- -- 69
2019-10-05 21:00:00 20.1 10 Sudeste 19 Sudeste 0 -- -- 66
2019-10-05 20:00:00 22.4 9 Sudeste 17 Sudeste 0 -- -- 57
2019-10-05 19:00:00 26.5 4 Sur 13 Oeste 0 -- -- 31
2019-10-05 18:00:00 26.7 7 Oeste 17 Oeste 0 -- -- 31
2019-10-05 17:00:00 26.4 9 Sudoeste 22 Sudoeste 0 -- -- 33
2019-10-05 16:00:00 25.6 14 Oeste 23 Oeste 0 -- -- 37
2019-10-05 15:00:00 24.4 13 Oeste 28 Oeste 0 -- -- 43
2019-10-05 14:00:00 22.9 16 Oeste 33 Oeste 0 -- -- 47
2019-10-05 13:00:00 21.4 19 Oeste 35 Oeste 0 -- -- 55
2019-10-05 12:00:00 19.9 21 Oeste 30 Noroeste 0 -- -- 59
2019-10-05 11:00:00 18.3 20 Oeste 32 Oeste 0 -- -- 66
2019-10-05 10:00:00 17.1 19 Oeste 30 Oeste 0 -- -- 70
2019-10-05 09:00:00 15.6 15 Oeste 26 Sudoeste 0 -- -- 76
2019-10-05 08:00:00 15.3 13 Oeste 27 Sudoeste 0 -- -- 77
2019-10-05 07:00:00 16 17 Sudoeste 27 Oeste 0 -- -- 74
2019-10-05 06:00:00 16.3 14 Oeste 26 Oeste 0 -- -- 73
2019-10-05 05:00:00 16.8 15 Oeste 31 Oeste 0 -- -- 70
2019-10-05 04:00:00 17 17 Oeste 31 Oeste 0 -- -- 68
2019-10-05 03:00:00 17.3 18 Oeste 33 Oeste 0 -- -- 68
2019-10-05 02:00:00 18.4 23 Oeste 33 Sudoeste 0 -- -- 66
2019-10-05 01:00:00 19 14 Sudoeste 19 Sudoeste 0 -- -- 64
2019-10-05 00:00:00 20 10 Oeste 18 Oeste 0 -- -- 58
2019-10-04 23:00:00 21.6 10 Oeste 15 Sudoeste 0 -- -- 53
2019-10-04 22:00:00 22.4 7 Sudoeste 13 Sudoeste 0 -- -- 50
2019-10-04 21:00:00 23.5 9 Sudoeste 15 Sudoeste 0 -- -- 46
2019-10-04 20:00:00 24.6 10 Sudoeste 18 Oeste 0 -- -- 44
2019-10-04 19:00:00 27 12 Sudoeste 18 Sudoeste 0 -- -- 39
2019-10-04 18:00:00 27.7 13 Oeste 28 Oeste 0 -- -- 36
2019-10-04 17:00:00 27.9 16 Sudoeste 33 Sudoeste 0 -- -- 37
2019-10-04 16:00:00 27.1 13 Oeste 29 Oeste 0 -- -- 40
2019-10-04 15:00:00 26 18 Oeste 29 Oeste 0 -- -- 43
2019-10-04 14:00:00 24.9 15 Oeste 27 Oeste 0 -- -- 47
2019-10-04 13:00:00 23.5 14 Oeste 27 Oeste 0 -- -- 49
2019-10-04 12:00:00 22.1 16 Sudoeste 26 Oeste 0 -- -- 51
2019-10-04 11:00:00 19.6 13 Oeste 24 Oeste 0 -- -- 53
2019-10-04 10:00:00 17.6 12 Oeste 18 Oeste 0 -- -- 57
2019-10-04 09:00:00 15.4 7 Oeste 14 Oeste 0 -- -- 63
2019-10-04 08:00:00 15.3 10 Oeste 18 Oeste 0 -- -- 63
2019-10-04 07:00:00 15.2 8 Oeste 22 Oeste 0 -- -- 61
2019-10-04 06:00:00 16 14 Oeste 25 Oeste 0 -- -- 57
2019-10-04 05:00:00 16 14 Oeste 24 Oeste 0 -- -- 52
2019-10-04 04:00:00 16 11 Sudoeste 29 Oeste 0 -- -- 48
2019-10-04 03:00:00 16.6 19 Oeste 27 Oeste 0 -- -- 45
2019-10-04 02:00:00 17.5 19 Oeste 35 Oeste 0 -- -- 48
2019-10-04 01:00:00 17.9 18 Oeste 31 Oeste 0 -- -- 45
2019-10-04 00:00:00 19 14 Sudoeste 29 Oeste 0 -- -- 44
2019-10-03 23:00:00 19.9 14 Oeste 24 Sudoeste 0 -- -- 42
2019-10-03 22:00:00 20.2 13 Oeste 22 Sudoeste 0 -- -- 39
2019-10-03 21:00:00 20.5 12 Sudoeste 17 Sudoeste 0 -- -- 33
2019-10-03 20:00:00 22.1 9 Sudoeste 16 Sudoeste 0 -- -- 30
2019-10-03 19:00:00 24.4 14 Oeste 30 Oeste 0 -- -- 27
2019-10-03 18:00:00 24.7 19 Oeste 31 Oeste 0 -- -- 28
2019-10-03 17:00:00 24.3 17 Oeste 35 Oeste 0 -- -- 31
2019-10-03 16:00:00 23.3 23 Oeste 37 Oeste 0 -- -- 33
2019-10-03 15:00:00 22.2 21 Oeste 35 Oeste 0 -- -- 40
2019-10-03 14:00:00 21 20 Oeste 42 Oeste 0 -- -- 45
2019-10-03 13:00:00 19.2 22 Oeste 34 Oeste 0 -- -- 49
2019-10-03 12:00:00 17.3 22 Oeste 37 Oeste 0 -- -- 57
2019-10-03 11:00:00 16.1 24 Oeste 40 Oeste 0 -- -- 62
2019-10-03 10:00:00 15.2 23 Oeste 38 Oeste 0 -- -- 65
2019-10-03 09:00:00 13.4 13 Oeste 23 Sudoeste 0 -- -- 73
2019-10-03 08:00:00 13.2 13 Oeste 25 Sudoeste 0 -- -- 74
2019-10-03 07:00:00 13.3 14 Oeste 28 Sudoeste 0 -- -- 75
2019-10-03 06:00:00 13.5 16 Oeste 27 Sudoeste 0 -- -- 74
2019-10-03 05:00:00 13.7 15 Oeste 26 Sudoeste 0 -- -- 72
2019-10-03 04:00:00 14.1 16 Sudoeste 32 Sudoeste 0 -- -- 70
2019-10-03 03:00:00 14.7 21 Sudoeste 38 Sudoeste 0 -- -- 68
2019-10-03 02:00:00 14.9 22 Oeste 36 Sudoeste 0 -- -- 70
2019-10-03 01:00:00 15.2 18 Oeste 40 Sudoeste 0 -- -- 69
2019-10-03 00:00:00 16 23 Oeste 46 Oeste 0 -- -- 67
2019-10-02 23:00:00 16.7 28 Oeste 44 Oeste 0 -- -- 66
2019-10-02 22:00:00 17.4 27 Oeste 42 Oeste 0 -- -- 62
2019-10-02 21:00:00 18.3 27 Oeste 46 Oeste 0 -- -- 59
2019-10-02 20:00:00 19.4 24 Oeste 46 Oeste 0 -- -- 54
2019-10-02 19:00:00 21 35 Oeste 58 Oeste 0 -- -- 48
2019-10-02 18:00:00 22.7 32 Oeste 57 Oeste 0 -- -- 44
2019-10-02 17:00:00 23.4 35 Oeste 58 Oeste 0 -- -- 42
2019-10-02 16:00:00 23.2 39 Oeste 60 Oeste 0 -- -- 42
2019-10-02 15:00:00 23.1 38 Oeste 58 Oeste 0 -- -- 44
2019-10-02 14:00:00 22.3 41 Oeste 56 Oeste 0 -- -- 45
2019-10-02 13:00:00 21 37 Oeste 54 Oeste 0 -- -- 49
2019-10-02 12:00:00 19.9 35 Oeste 49 Oeste 0 -- -- 52
2019-10-02 11:00:00 18.3 31 Oeste 50 Oeste 0 -- -- 57
2019-10-02 10:00:00 17.1 33 Oeste 52 Oeste 0 -- -- 62
2019-10-02 09:00:00 15.9 29 Oeste 49 Oeste 0 -- -- 68
2019-10-02 08:00:00 15.4 27 Oeste 45 Oeste 0 -- -- 71
2019-10-02 07:00:00 15.4 21 Oeste 36 Oeste 0 -- -- 75
2019-10-02 06:00:00 15.8 18 Oeste 35 Oeste 0 -- -- 76
2019-10-02 05:00:00 16.5 20 Oeste 33 Oeste 0 -- -- 72
2019-10-02 04:00:00 17.1 19 Oeste 35 Oeste 0 -- -- 70
2019-10-02 03:00:00 17.6 17 Oeste 29 Oeste 0 -- -- 67
2019-10-02 02:00:00 18.6 15 Oeste 28 Sudoeste 0 -- -- 64
2019-10-02 01:00:00 19.9 13 Oeste 20 Oeste 0 -- -- 60
2019-10-02 00:00:00 20.8 11 Oeste 17 Oeste 0 -- -- 58
2019-10-01 23:00:00 22.5 13 Oeste 26 Oeste 0 -- -- 52
2019-10-01 22:00:00 23.5 14 Oeste 23 Oeste 0 -- -- 49
2019-10-01 21:00:00 24.9 14 Oeste 23 Oeste 0 -- -- 43
2019-10-01 20:00:00 26.7 15 Oeste 26 Oeste 0 -- -- 37
2019-10-01 19:00:00 28.7 18 Oeste 39 Oeste 0 -- -- 31
2019-10-01 18:00:00 30 22 Oeste 32 Oeste 0 -- -- 27
2019-10-01 17:00:00 30.1 18 Oeste 29 Oeste 0 -- -- 31
2019-10-01 16:00:00 29.2 13 Noroeste 35 Oeste 0 -- -- 34
2019-10-01 15:00:00 28.8 17 Oeste 25 Noroeste 0 -- -- 30
2019-10-01 14:00:00 27.5 14 Oeste 22 Oeste 0 -- -- 35
2019-10-01 13:00:00 24.8 8 Oeste 20 Oeste 0 -- -- 50
2019-10-01 12:00:00 23.1 6 Oeste 12 Oeste 0 -- -- 67
2019-10-01 11:00:00 21 2 Nordeste 10 Noroeste 0 -- -- 85
2019-10-01 10:00:00 18.7 2 Noroeste 5 Este 0 -- -- 97
2019-10-01 09:00:00 17.1 2 Sur 9 Nordeste 0 -- -- 99
2019-10-01 08:00:00 16.9 6 Este 8 Este 0 -- -- 98
2019-10-01 07:00:00 17.6 3 Este 10 Sudeste 0 -- -- 98
2019-10-01 06:00:00 17.7 7 Nordeste 10 Este 0 -- -- 97
2019-10-01 05:00:00 17.9 3 Este 12 Este 0 -- -- 97
2019-10-01 04:00:00 18.1 5 Nordeste 13 Nordeste 0 -- -- 96
2019-10-01 03:00:00 18.4 11 Este 14 Nordeste 0 -- -- 94
2019-10-01 02:00:00 19.1 9 Este 20 Este 0 -- -- 92
2019-10-01 01:00:00 19.7 8 Este 22 Sudeste 0 -- -- 90
2019-10-01 00:00:00 19.8 10 Este 25 Este 0 -- -- 89
2019-09-30 23:00:00 20 10 Este 22 Este 0 -- -- 88
2019-09-30 22:00:00 20.4 10 Este 25 Este 0 -- -- 86
2019-09-30 21:00:00 21 12 Este 23 Este 0 -- -- 84
2019-09-30 20:00:00 22.4 15 Este 29 Nordeste 0 -- -- 76
2019-09-30 19:00:00 24.3 11 Este 30 Sudeste 0 -- -- 67
2019-09-30 18:00:00 26 13 Este 32 Este 0 -- -- 59
2019-09-30 17:00:00 27.4 14 Este 28 Este 0 -- -- 53
2019-09-30 16:00:00 28.7 12 Este 22 Sudeste 0 -- -- 47
2019-09-30 15:00:00 29.3 9 Sudeste 19 Sudeste 0 -- -- 35
2019-09-30 14:00:00 27.9 5 Nordeste 12 Este 0 -- -- 35
2019-09-30 13:00:00 26.3 4 Sur 11 Sudoeste 0 -- -- 39
2019-09-30 12:00:00 24 5 Sur 12 Oeste 0 -- -- 47
2019-09-30 11:00:00 21.3 9 Oeste 19 Oeste 0 -- -- 56
2019-09-30 10:00:00 19.4 11 Oeste 18 Oeste 0 -- -- 62
2019-09-30 09:00:00 17.3 10 Oeste 19 Oeste 0 -- -- 66
2019-09-30 08:00:00 17.1 11 Oeste 19 Sudoeste 0 -- -- 64
2019-09-30 07:00:00 17.3 10 Sudoeste 19 Sudoeste 0 -- -- 62
2019-09-30 06:00:00 18.2 15 Sudoeste 21 Oeste 0 -- -- 61
2019-09-30 05:00:00 19.7 9 Oeste 15 Oeste 0 -- -- 61
2019-09-30 04:00:00 21.2 6 Sudoeste 10 Sudoeste 0 -- -- 54
2019-09-30 03:00:00 21.1 6 Sudoeste 10 Sudoeste 0 -- -- 57
2019-09-30 02:00:00 21.1 5 Sur 14 Sur 0 -- -- 76
2019-09-30 01:00:00 21.7 11 Sur 14 Sudeste 0 -- -- 77
2019-09-30 00:00:00 22.3 4 Este 8 Sudeste 0 -- -- 73
2019-09-29 23:00:00 22.6 4 Este 17 Sudeste 0 -- -- 72
2019-09-29 22:00:00 23.7 13 Sudeste 19 Sudeste 0 -- -- 69
2019-09-29 21:00:00 24.6 13 Sur 17 Sur 0 -- -- 64
2019-09-29 20:00:00 28 7 Sudeste 14 Sudeste 0 -- -- 43
2019-09-29 19:00:00 30.8 9 Oeste 14 Oeste 0 -- -- 24
2019-09-29 18:00:00 31.1 8 Oeste 18 Oeste 0 -- -- 26
2019-09-29 17:00:00 31.2 11 Oeste 24 Oeste 0 -- -- 27
2019-09-29 16:00:00 30.8 10 Oeste 21 Oeste 0 -- -- 27
2019-09-29 15:00:00 29.3 6 Noroeste 19 Noroeste 0 -- -- 33
2019-09-29 14:00:00 27.6 8 Noroeste 21 Oeste 0 -- -- 35
2019-09-29 13:00:00 25.8 6 Sudoeste 13 Oeste 0 -- -- 51
2019-09-29 12:00:00 22.2 2 Noroeste 8 Oeste 0 -- -- 70
2019-09-29 11:00:00 18.3 8 Oeste 11 Oeste 0 -- -- 98
2019-09-29 10:00:00 17 3 Noroeste 9 Sudeste 0 -- -- 99
2019-09-29 09:00:00 17 10 Sudeste 13 Sudeste 0 -- -- 98
2019-09-29 08:00:00 16.7 10 Sudeste 11 Sudeste 0 -- -- 97
2019-09-29 07:00:00 17.4 0 Calma 13 Sudeste 0 -- -- 97
2019-09-29 06:00:00 17.6 5 Este 9 Sudeste 0 -- -- 96
2019-09-29 05:00:00 18.2 3 Este 8 Sudeste 0 -- -- 95
2019-09-29 04:00:00 18.3 8 Este 13 Este 0 -- -- 95
2019-09-29 03:00:00 18.7 7 Este 13 Este 0 -- -- 94
2019-09-29 02:00:00 19 9 Este 16 Este 0 -- -- 91
2019-09-29 01:00:00 19.3 8 Este 18 Este 0 -- -- 90
2019-09-29 00:00:00 19.6 9 Este 22 Este 0 -- -- 87
2019-09-28 23:00:00 20 11 Este 22 Este 0 -- -- 84
2019-09-28 22:00:00 20.5 10 Este 23 Sudeste 0 -- -- 83
2019-09-28 21:00:00 20.9 11 Este 24 Sudeste 0 -- -- 82
2019-09-28 20:00:00 21.7 10 Este 25 Este 0 -- -- 79
2019-09-28 19:00:00 23.4 14 Este 32 Sudeste 0 -- -- 72
2019-09-28 18:00:00 25.1 13 Este 30 Este 0 -- -- 64
2019-09-28 17:00:00 25.8 13 Este 31 Este 0 -- -- 61
2019-09-28 16:00:00 26.4 15 Este 28 Este 0 -- -- 59
2019-09-28 15:00:00 26.7 10 Este 29 Sudeste 0 -- -- 53
2019-09-28 14:00:00 26.1 9 Este 22 Nordeste 0 -- -- 53
2019-09-28 13:00:00 24.4 5 Oeste 14 Oeste 0 -- -- 50
2019-09-28 12:00:00 22.1 8 Sudoeste 17 Oeste 0 -- -- 55
2019-09-28 11:00:00 20 9 Sudoeste 16 Sudoeste 0 -- -- 63
2019-09-28 10:00:00 17.8 9 Oeste 16 Sudoeste 0 -- -- 73
2019-09-28 09:00:00 16 11 Sudoeste 16 Sudoeste 0 -- -- 79
2019-09-28 08:00:00 15.4 8 Sudoeste 17 Sudoeste 0 -- -- 79
2019-09-28 07:00:00 16 7 Oeste 12 Oeste 0 -- -- 74
2019-09-28 06:00:00 16.8 8 Oeste 17 Sudoeste 0 -- -- 72
2019-09-28 05:00:00 17.1 10 Sudoeste 18 Sudoeste 0 -- -- 69
2019-09-28 04:00:00 18.3 15 Sudoeste 22 Sudoeste 0 -- -- 65
2019-09-28 03:00:00 20 8 Sudoeste 14 Sudoeste 0 -- -- 68
2019-09-28 02:00:00 19.9 10 Sur 15 Sur 0 -- -- 84
2019-09-28 01:00:00 20.6 10 Sudeste 13 Sudeste 0 -- -- 81
2019-09-28 00:00:00 21.4 9 Sudeste 20 Sudeste 0 -- -- 78
2019-09-27 23:00:00 21.6 9 Sudeste 18 Sudeste 0 -- -- 83
2019-09-27 22:00:00 22 7 Este 15 Sudeste 0 -- -- 82
2019-09-27 21:00:00 23.3 9 Sudeste 18 Sudeste 0 -- -- 73
2019-09-27 20:00:00 25.4 10 Sudeste 19 Sudeste 0 -- -- 65
2019-09-27 19:00:00 30.2 2 Oeste 25 Sur 0 -- -- 26
2019-09-27 18:00:00 30.4 4 Sudoeste 20 Oeste 0 -- -- 28
2019-09-27 17:00:00 30.2 9 Oeste 21 Oeste 0 -- -- 29
2019-09-27 16:00:00 29.6 12 Oeste 22 Oeste 0 -- -- 32
2019-09-27 15:00:00 28.6 9 Oeste 27 Sur 0 -- -- 36
2019-09-27 14:00:00 27.3 11 Sudoeste 20 Sudoeste 0 -- -- 44
2019-09-27 13:00:00 25.4 12 Oeste 19 Oeste 0 -- -- 58
2019-09-27 12:00:00 24.1 8 Oeste 16 Noroeste 0 -- -- 54
2019-09-27 11:00:00 22 5 Sudoeste 11 Sudoeste 0 -- -- 62
2019-09-27 10:00:00 19.6 5 Oeste 8 Sudoeste 0 -- -- 88
2019-09-27 09:00:00 17.6 4 Oeste 11 Sudeste 0 -- -- 96
2019-09-27 08:00:00 17.8 9 Sudeste 10 Sudeste 0 -- -- 95
2019-09-27 07:00:00 17.8 3 Este 12 Sudeste 0 -- -- 94
2019-09-27 06:00:00 18.3 7 Sudeste 11 Sudeste 0 -- -- 93
2019-09-27 05:00:00 18.6 4 Este 15 Sudeste 0 -- -- 91
2019-09-27 04:00:00 18.8 0 Calma 8 Nordeste 0 -- -- 90
2019-09-27 03:00:00 18.8 4 Nordeste 10 Nordeste 0 -- -- 89
2019-09-27 02:00:00 19 10 Este 11 Este 0 -- -- 87
2019-09-27 01:00:00 19.8 8 Este 13 Este 0 -- -- 83
2019-09-27 00:00:00 20.2 7 Este 16 Este 0 -- -- 81
2019-09-26 23:00:00 20.5 9 Este 18 Este 0 -- -- 80
2019-09-26 22:00:00 21 7 Este 22 Sudeste 0 -- -- 78
2019-09-26 21:00:00 22 12 Sudeste 26 Sudeste 0 -- -- 72
2019-09-26 20:00:00 23.3 12 Sudeste 28 Sudeste 0 -- -- 62
2019-09-26 19:00:00 25.6 11 Sudeste 26 Sudeste 0 -- -- 53
2019-09-26 18:00:00 27.6 9 Sudeste 28 Este 0 -- -- 45
2019-09-26 17:00:00 29 8 Nordeste 22 Nordeste 0 -- -- 33
2019-09-26 16:00:00 28.8 5 Nordeste 17 Sur 0 -- -- 33
2019-09-26 15:00:00 28.1 5 Norte 24 Nordeste 0 -- -- 34
2019-09-26 14:00:00 26.9 6 Este 16 Noroeste 0 -- -- 36
2019-09-26 13:00:00 25.2 6 Noroeste 15 Oeste 0 -- -- 40
2019-09-26 12:00:00 23.5 6 Noroeste 16 Noroeste 0 -- -- 44
2019-09-26 11:00:00 22.2 9 Oeste 17 Oeste 0 -- -- 46
2019-09-26 10:00:00 20.1 9 Sudoeste 14 Sudoeste 0 -- -- 51
2019-09-26 09:00:00 17.5 5 Sudoeste 13 Sudoeste 0 -- -- 59
2019-09-26 08:00:00 16.8 10 Sudoeste 14 Sudoeste 0 -- -- 61
2019-09-26 07:00:00 16.6 9 Sudoeste 15 Sudoeste 0 -- -- 61
2019-09-26 06:00:00 16.9 6 Sudoeste 13 Sudoeste 0 -- -- 60
2019-09-26 05:00:00 17.3 8 Oeste 17 Sudoeste 0 -- -- 59
2019-09-26 04:00:00 17.9 14 Sudoeste 21 Sudoeste 0 -- -- 56
2019-09-26 03:00:00 18.1 13 Sudoeste 23 Sudoeste 0 -- -- 55
2019-09-26 02:00:00 18.3 13 Sudoeste 21 Sudoeste 0 -- -- 54
2019-09-26 01:00:00 18.6 11 Sudoeste 18 Sudoeste 0 -- -- 52
2019-09-26 00:00:00 19.2 10 Sudoeste 16 Sudoeste 0 -- -- 50
2019-09-25 23:00:00 19.6 12 Sudoeste 16 Sudoeste 0 -- -- 48
2019-09-25 22:00:00 20.3 8 Sudoeste 14 Sudoeste 0 -- -- 44
2019-09-25 21:00:00 21 6 Sudoeste 10 Sudoeste 0 -- -- 40
2019-09-25 20:00:00 21.7 5 Oeste 24 Oeste 0 -- -- 38
2019-09-25 19:00:00 23.1 16 Oeste 29 Oeste 0 -- -- 37
2019-09-25 18:00:00 23.9 21 Oeste 33 Oeste 0 -- -- 38
2019-09-25 17:00:00 24.6 19 Oeste 38 Oeste 0 -- -- 37
2019-09-25 16:00:00 24.2 23 Oeste 41 Oeste 0 -- -- 38
2019-09-25 15:00:00 24 19 Oeste 40 Oeste 0 -- -- 40
2019-09-25 14:00:00 23 27 Oeste 42 Oeste 0 -- -- 42
2019-09-25 13:00:00 22.5 26 Oeste 41 Oeste 0 -- -- 45
2019-09-25 12:00:00 21.4 22 Oeste 35 Sudoeste 0 -- -- 49
2019-09-25 11:00:00 20 15 Oeste 27 Oeste 0 -- -- 58
2019-09-25 10:00:00 18.7 17 Oeste 35 Oeste 0 -- -- 63
2019-09-25 09:00:00 17.4 23 Oeste 39 Oeste 0 -- -- 69
2019-09-25 08:00:00 17.3 18 Oeste 27 Oeste 0 -- -- 71
2019-09-25 07:00:00 17.8 14 Oeste 28 Sudoeste 0 -- -- 71
2019-09-25 06:00:00 19.6 16 Sudoeste 24 Oeste 0 -- -- 68
2019-09-25 05:00:00 21 12 Oeste 21 Oeste 0 -- -- 63
2019-09-25 04:00:00 21.9 11 Sudoeste 19 Sudoeste 0 -- -- 58
2019-09-25 03:00:00 22.5 8 Oeste 13 Sudoeste 0 -- -- 55
2019-09-25 02:00:00 22.6 8 Oeste 15 Sudoeste 0 -- -- 54
2019-09-25 01:00:00 23.1 10 Sudoeste 14 Sudoeste 0 -- -- 52
2019-09-25 00:00:00 24.3 9 Oeste 14 Oeste 0 -- -- 48
2019-09-24 23:00:00 24.9 7 Noroeste 10 Noroeste 0 -- -- 45
2019-09-24 22:00:00 25.6 6 Norte 12 Norte 0 -- -- 42
2019-09-24 21:00:00 26.3 6 Noroeste 17 Oeste 0 -- -- 43
2019-09-24 20:00:00 27.7 5 Oeste 20 Oeste 0 -- -- 38
2019-09-24 19:00:00 29.7 17 Oeste 32 Noroeste 0 -- -- 34
2019-09-24 18:00:00 29.5 10 Oeste 32 Oeste 0 -- -- 30
2019-09-24 17:00:00 30.4 14 Noroeste 31 Oeste 0 -- -- 28
2019-09-24 16:00:00 29.8 22 Oeste 37 Noroeste 0 -- -- 28
2019-09-24 15:00:00 29 21 Oeste 37 Oeste 0 -- -- 31
2019-09-24 14:00:00 28 18 Oeste 33 Oeste 0 -- -- 32
2019-09-24 13:00:00 26.4 21 Oeste 32 Oeste 0 -- -- 35
2019-09-24 12:00:00 24.6 11 Oeste 24 Oeste 0 -- -- 43
2019-09-24 11:00:00 22.6 13 Oeste 21 Oeste 0 -- -- 47
2019-09-24 10:00:00 20.4 2 Oeste 6 Sudeste 0 -- -- 54
2019-09-24 09:00:00 17.1 0 Calma 7 Sudoeste 0 -- -- 64
2019-09-24 08:00:00 16.8 2 Sur 4 Sur 0 -- -- 62
2019-09-24 07:00:00 17.9 3 Sudoeste 8 Sudoeste 0 -- -- 58
2019-09-24 06:00:00 17.8 5 Sudoeste 9 Sudoeste 0 -- -- 60
2019-09-24 05:00:00 17.9 5 Sur 9 Sur 0 -- -- 63
2019-09-24 04:00:00 17.9 6 Sudeste 11 Sudeste 0 -- -- 76
2019-09-24 03:00:00 17.7 10 Sudeste 13 Sur 0 -- -- 81
2019-09-24 02:00:00 18 7 Sudeste 13 Sudeste 0 -- -- 84
2019-09-24 01:00:00 18.1 11 Sur 13 Sudeste 0 -- -- 87
2019-09-24 00:00:00 18.6 10 Sudeste 15 Sudeste 0 -- -- 85
2019-09-23 23:00:00 19 11 Sudeste 15 Sudeste 0 -- -- 81
2019-09-23 22:00:00 19.7 6 Sudeste 14 Sudeste 0 -- -- 77
2019-09-23 21:00:00 20.8 10 Sur 14 Sudeste 0 -- -- 73
2019-09-23 20:00:00 22.9 8 Sur 13 Sur 0 -- -- 59
2019-09-23 19:00:00 24.8 6 Oeste 17 Oeste 0 -- -- 35
2019-09-23 18:00:00 24.8 9 Noroeste 20 Oeste 0 -- -- 35
2019-09-23 17:00:00 25.2 12 Oeste 21 Noroeste 0 -- -- 35
2019-09-23 16:00:00 25.2 15 Noroeste 27 Noroeste 0 -- -- 34
2019-09-23 15:00:00 25.1 21 Oeste 35 Noroeste 0 -- -- 34
2019-09-23 14:00:00 25.1 12 Oeste 21 Sudoeste 0 -- -- 37
2019-09-23 13:00:00 23.8 8 Oeste 18 Oeste 0 -- -- 42
2019-09-23 12:00:00 21.7 9 Oeste 15 Oeste 0 -- -- 48
2019-09-23 11:00:00 19.4 9 Oeste 14 Oeste 0 -- -- 57
2019-09-23 10:00:00 17.2 6 Oeste 11 Sudoeste 0 -- -- 66
2019-09-23 09:00:00 15.5 5 Sudoeste 13 Sudoeste 0 -- -- 72
2019-09-23 08:00:00 14.9 9 Oeste 14 Oeste 0 -- -- 71
2019-09-23 07:00:00 15.9 8 Oeste 13 Sudoeste 0 -- -- 65
2019-09-23 06:00:00 16.2 7 Oeste 14 Sudoeste 0 -- -- 64
2019-09-23 05:00:00 16.9 10 Sudoeste 16 Sudoeste 0 -- -- 61
2019-09-23 04:00:00 17 11 Sudoeste 15 Sudoeste 0 -- -- 63
2019-09-23 03:00:00 16.9 9 Oeste 15 Sudoeste 0 -- -- 65
2019-09-23 02:00:00 17.6 11 Sudoeste 18 Sudoeste 0 -- -- 64
2019-09-23 01:00:00 17.7 11 Oeste 15 Oeste 0 -- -- 67
2019-09-23 00:00:00 18.8 10 Sudoeste 15 Oeste 0 -- -- 67
2019-09-22 23:00:00 19.5 8 Oeste 11 Oeste 0 -- -- 70
2019-09-22 22:00:00 19.8 4 Oeste 10 Sudoeste 0 -- -- 72
2019-09-22 21:00:00 20 7 Oeste 15 Oeste 0 -- -- 73
2019-09-22 20:00:00 20.6 12 Sudoeste 19 Sudoeste 0 -- -- 70
2019-09-22 19:00:00 21.4 11 Oeste 51 Oeste 0 -- -- 67
2019-09-22 18:00:00 24 31 Oeste 50 Oeste 0 -- -- 49
2019-09-22 17:00:00 26.4 27 Oeste 41 Oeste 0 -- -- 45
2019-09-22 16:00:00 28.2 15 Oeste 28 Oeste 0 -- -- 42
2019-09-22 15:00:00 27.2 13 Oeste 24 Oeste 0 -- -- 45
2019-09-22 14:00:00 27.2 5 Noroeste 21 Oeste 0 -- -- 45
2019-09-22 13:00:00 26.8 10 Oeste 28 Oeste 0 -- -- 48
2019-09-22 12:00:00 25.8 12 Oeste 21 Noroeste 0 -- -- 49
2019-09-22 11:00:00 23.9 4 Sudoeste 13 Sudeste 0 -- -- 61
2019-09-22 10:00:00 21.6 8 Sudeste 12 Sudeste 0 -- -- 77
2019-09-22 09:00:00 19.3 9 Sur 16 Sudeste 0 -- -- 92
2019-09-22 08:00:00 19.2 12 Sudeste 22 Sudeste 0 -- -- 93
2019-09-22 07:00:00 19.2 10 Sudeste 16 Sudeste 0 -- -- 93
2019-09-22 06:00:00 19.1 6 Este 18 Sudeste 0 -- -- 93
2019-09-22 05:00:00 19.4 8 Sudeste 18 Sudeste 0 -- -- 93
2019-09-22 04:00:00 19.5 9 Este 26 Sudeste 0 -- -- 91
2019-09-22 03:00:00 19.6 10 Sudeste 22 Sudeste 0 -- -- 91
2019-09-22 02:00:00 19.6 9 Este 21 Este 0 -- -- 90
2019-09-22 01:00:00 19.5 11 Este 26 Sudeste 0 -- -- 90
2019-09-22 00:00:00 19.6 15 Este 28 Este 0 -- -- 90
2019-09-21 23:00:00 20 13 Este 23 Sudeste 0 -- -- 88
2019-09-21 22:00:00 20.3 10 Este 28 Sudeste 0 -- -- 87
2019-09-21 21:00:00 20.6 13 Sudeste 30 Este 0 -- -- 87
2019-09-21 20:00:00 21.4 12 Este 34 Sudeste 0 -- -- 84
2019-09-21 19:00:00 23.5 13 Sudeste 28 Sudeste 0 -- -- 73
2019-09-21 18:00:00 24.9 11 Sudeste 24 Sudeste 0 -- -- 61
2019-09-21 17:00:00 25.9 11 Este 26 Sudeste 0 -- -- 54
2019-09-21 16:00:00 25.1 12 Sudeste 26 Este 0 -- -- 64
2019-09-21 15:00:00 24.8 10 Este 24 Sudeste 0 -- -- 65
2019-09-21 14:00:00 26 11 Sudeste 19 Sudeste 0 -- -- 62
2019-09-21 13:00:00 24.8 9 Este 19 Sudeste 0 -- -- 64
2019-09-21 12:00:00 22.9 6 Sudeste 13 Este 0 -- -- 68
2019-09-21 11:00:00 19 6 Este 19 Este 0 -- -- 98
2019-09-21 10:00:00 17.8 3 Nordeste 12 Nordeste 0 -- -- 98
2019-09-21 09:00:00 17.3 5 Este 12 Este 0 -- -- 97
2019-09-21 08:00:00 17.4 5 Sur 9 Este 0 -- -- 96
2019-09-21 07:00:00 17.7 7 Sudoeste 18 Oeste 3.4 -- -- 95
2019-09-21 06:00:00 18.6 4 Este 18 Nordeste 0 -- -- 88
2019-09-21 05:00:00 18.6 9 Este 18 Este 0 -- -- 88
2019-09-21 04:00:00 18.6 13 Nordeste 19 Nordeste 0 -- -- 88
2019-09-21 03:00:00 18.8 4 Este 15 Este 0 -- -- 87
2019-09-21 02:00:00 18.5 8 Este 15 Este 0 -- -- 88
2019-09-21 01:00:00 18.6 10 Este 23 Este 0 -- -- 86
2019-09-21 00:00:00 19 12 Nordeste 22 Este 0 -- -- 84
2019-09-20 23:00:00 19.3 8 Este 27 Este 0 -- -- 82
2019-09-20 22:00:00 19.4 13 Este 30 Este 0 -- -- 82
2019-09-20 21:00:00 19.9 17 Este 33 Este 0 -- -- 79
2019-09-20 20:00:00 20.8 14 Este 31 Este 0 -- -- 68
2019-09-20 19:00:00 22 11 Este 33 Este 0 -- -- 66
2019-09-20 18:00:00 23 15 Este 35 Este 0 -- -- 64
2019-09-20 17:00:00 23.9 14 Este 39 Este 0 -- -- 66
2019-09-20 16:00:00 24.6 15 Este 38 Este 0 -- -- 64
2019-09-20 15:00:00 25.3 17 Este 34 Este 0 -- -- 60
2019-09-20 14:00:00 25.6 18 Este 33 Este 0 -- -- 60
2019-09-20 13:00:00 25.6 14 Este 37 Este 0 -- -- 60
2019-09-20 12:00:00 24.3 15 Este 39 Este 0 -- -- 65
2019-09-20 11:00:00 22.4 13 Este 25 Este 0 -- -- 75
2019-09-20 10:00:00 21.7 11 Este 24 Nordeste 0 -- -- 80
2019-09-20 09:00:00 19.3 12 Este 23 Este 0 -- -- 90
2019-09-20 08:00:00 18.8 12 Este 22 Este 0 -- -- 93
2019-09-20 07:00:00 18.5 13 Este 21 Este 0 -- -- 92
2019-09-20 06:00:00 18.8 9 Este 23 Este 0 -- -- 91
2019-09-20 05:00:00 19 14 Este 24 Este 0 -- -- 90
2019-09-20 04:00:00 19.2 10 Este 22 Este 0 -- -- 86
2019-09-20 03:00:00 19.1 14 Este 29 Este 0 -- -- 86
2019-09-20 02:00:00 19.2 12 Este 25 Sudeste 0 -- -- 84
2019-09-20 01:00:00 19.3 11 Este 23 Este 0 -- -- 83
2019-09-20 00:00:00 19.5 9 Este 24 Este 0 -- -- 85
2019-09-19 23:00:00 19.8 15 Este 25 Sudeste 0 -- -- 82
2019-09-19 22:00:00 20.4 10 Este 22 Este 0 -- -- 73
2019-09-19 21:00:00 21 9 Este 24 Sudeste 0 -- -- 68
2019-09-19 20:00:00 22.1 12 Sudeste 35 Sudeste 0 -- -- 66
2019-09-19 19:00:00 23.7 16 Sudeste 34 Sudeste 0 -- -- 59
2019-09-19 18:00:00 24.8 21 Sudeste 40 Sudeste 0 -- -- 56
2019-09-19 17:00:00 26.5 17 Sudeste 37 Sudeste 0 -- -- 55
2019-09-19 16:00:00 30.2 12 Sudeste 27 Sudeste 0 -- -- 41
2019-09-19 15:00:00 29.4 6 Este 15 Este 0 -- -- 42
2019-09-19 14:00:00 28 4 Sudeste 14 Sudoeste 0 -- -- 45
2019-09-19 13:00:00 26.2 5 Oeste 15 Oeste 0 -- -- 51
2019-09-19 12:00:00 24.5 4 Sudoeste 13 Oeste 0 -- -- 56
2019-09-19 11:00:00 22.2 8 Sudoeste 15 Oeste 0 -- -- 64
2019-09-19 10:00:00 21 9 Oeste 15 Oeste 0 -- -- 69
2019-09-19 09:00:00 19.4 4 Sudoeste 10 Sudoeste 0 -- -- 71
2019-09-19 08:00:00 18.5 7 Sur 9 Sudoeste 0 -- -- 71
2019-09-19 07:00:00 18.4 8 Sur 13 Sudoeste 0 -- -- 71
2019-09-19 06:00:00 18.7 3 Sudoeste 10 Sudoeste 0 -- -- 70
2019-09-19 05:00:00 19 6 Sur 13 Sur 0 -- -- 66
2019-09-19 04:00:00 20.1 8 Sudoeste 15 Sudoeste 0 -- -- 62
2019-09-19 03:00:00 19.9 13 Sur 17 Sur 0 -- -- 66
2019-09-19 02:00:00 20.4 2 Oeste 13 Sudeste 0 -- -- 68
2019-09-19 01:00:00 20.9 10 Sudeste 14 Sur 0 -- -- 65
2019-09-19 00:00:00 21.5 4 Sur 13 Sur 0 -- -- 61
2019-09-18 23:00:00 22.6 6 Sudeste 13 Sur 0 -- -- 57
2019-09-18 22:00:00 23 12 Sur 17 Sur 0 -- -- 54
2019-09-18 21:00:00 24.9 6 Noroeste 9 Sudoeste 0 -- -- 45
2019-09-18 20:00:00 25.7 7 Sudoeste 18 Sudoeste 0 -- -- 42
2019-09-18 19:00:00 26.9 4 Sur 26 Oeste 0 -- -- 39
2019-09-18 18:00:00 27 18 Sudoeste 27 Sudoeste 0 -- -- 40
2019-09-18 17:00:00 28.6 12 Sudoeste 20 Sur 0 -- -- 36
2019-09-18 16:00:00 30.7 6 Este 15 Oeste 0 -- -- 33
2019-09-18 15:00:00 28.3 7 Oeste 14 Oeste 0 -- -- 40
2019-09-18 14:00:00 26.5 9 Oeste 20 Oeste 0 -- -- 45
2019-09-18 13:00:00 25.4 6 Oeste 17 Sudoeste 0 -- -- 48
2019-09-18 12:00:00 24.5 14 Oeste 25 Oeste 0 -- -- 50
2019-09-18 11:00:00 22.5 15 Oeste 29 Oeste 0 -- -- 55
2019-09-18 10:00:00 21.7 14 Oeste 24 Oeste 0 -- -- 55
2019-09-18 09:00:00 19.9 8 Sudoeste 15 Sudoeste 0 -- -- 60
2019-09-18 08:00:00 19.4 13 Sudoeste 18 Sudoeste 0 -- -- 60
2019-09-18 07:00:00 19.9 9 Sudoeste 12 Sudoeste 0 -- -- 58
2019-09-18 06:00:00 20.8 6 Sudoeste 13 Sudoeste 0 -- -- 55
2019-09-18 05:00:00 20.9 6 Sudoeste 10 Sudoeste 0 -- -- 55
2019-09-18 04:00:00 20.9 3 Sudoeste 9 Sudoeste 0 -- -- 56
2019-09-18 03:00:00 20.5 6 Sudoeste 11 Nordeste 0 -- -- 59
2019-09-18 02:00:00 22.3 2 Sur 6 Sur 0 -- -- 52
2019-09-18 01:00:00 22.5 3 Oeste 19 Sur 0 -- -- 51
2019-09-18 00:00:00 22.4 9 Sur 24 Sur 0 -- -- 54
2019-09-17 23:00:00 23.1 10 Sudeste 24 Sudeste 0 -- -- 49
2019-09-17 22:00:00 23.4 14 Sudeste 25 Sudeste 0 -- -- 50
2019-09-17 21:00:00 23.9 9 Este 19 Este 0 -- -- 53